Time;durP1;ratioP1;P1;durP2;ratioP2;P2;SDS_P1;SDS_P2;PMS_P1;PMS_P2;Temp;Humidity;BMP_temperature;BMP_pressure;BME280_temperature;BME280_humidity;BME280_pressure;Samples;Min_cycle;Max_cycle;Signal;HPM_P1;HPM_P2
2022/10/08 00:01:16;;;;;;;15.67;11.87;;;;;;;10.10;88.60;101141.39;1423315;91;21502;-78
2022/10/08 00:03:45;;;;;;;;;;;;;;;10.10;88.68;101137.91;1423871;91;21561;-78
2022/10/08 00:06:17;;;;;;;21.77;11.20;;;;;;;10.07;89.62;101136.81;1422109;91;20391;-78
2022/10/08 00:08:55;;;;;;;17.47;10.77;;;;;;;10.03;88.86;101142.01;1423153;91;21524;-77
2022/10/08 00:11:26;;;;;;;23.87;10.73;;;;;;;10.00;88.55;101136.98;1426165;91;21444;-78
2022/10/08 00:13:54;;;;;;;;;;;;;;;9.94;88.74;101131.22;1421838;91;21414;-78
2022/10/08 00:16:37;;;;;;;19.80;11.67;;;;;;;9.89;88.82;101132.08;1425561;91;20488;-77
2022/10/08 00:19:12;;;;;;;17.00;10.90;;;;;;;9.84;88.65;101127.67;1429256;91;21532;-77
2022/10/08 00:21:42;;;;;;;18.07;10.53;;;;;;;9.80;88.65;101125.39;1420664;91;21642;-77
2022/10/08 00:24:16;;;;;;;15.15;10.98;;;;;;;9.76;88.46;101123.98;1420873;91;21538;-77
2022/10/08 00:26:43;;;;;;;15.30;11.03;;;;;;;9.72;88.17;101123.36;1416668;91;22360;-78
2022/10/08 00:29:15;;;;;;;14.50;9.93;;;;;;;9.67;89.07;101121.11;1427440;91;21457;-81
2022/10/08 00:31:46;;;;;;;18.77;11.20;;;;;;;9.65;89.27;101116.91;1424882;90;22374;-77
2022/10/08 00:34:18;;;;;;;16.03;10.37;;;;;;;9.64;89.14;101115.24;1403597;90;21442;-77
2022/10/08 00:36:52;;;;;;;19.57;11.27;;;;;;;9.62;88.96;101112.71;1421552;90;21434;-77
2022/10/08 00:39:22;;;;;;;15.20;10.60;;;;;;;9.60;88.78;101111.16;1428675;90;21494;-78
2022/10/08 00:41:53;;;;;;;18.57;11.18;;;;;;;9.58;88.69;101107.78;1419304;90;21400;-78
2022/10/08 00:44:57;;;;;;;16.30;11.30;;;;;;;9.57;88.79;101102.98;1428571;91;21589;-78
2022/10/08 00:47:39;;;;;;;22.13;11.17;;;;;;;9.59;88.79;101105.52;1426973;91;22442;-76
2022/10/08 00:50:14;;;;;;;13.97;9.97;;;;;;;9.61;89.00;101098.28;1430240;91;21479;-78
2022/10/08 00:52:50;;;;;;;15.70;10.53;;;;;;;9.60;89.04;101093.97;1412238;92;21443;-77
2022/10/08 00:55:22;;;;;;;13.70;9.90;;;;;;;9.57;89.07;101100.34;1419913;91;21423;-78
2022/10/08 00:57:51;;;;;;;17.97;12.00;;;;;;;9.55;88.99;101097.47;1405696;91;21364;-78
2022/10/08 01:00:23;;;;;;;15.97;10.83;;;;;;;9.53;88.67;101095.45;1393362;91;21437;-78
2022/10/08 01:02:51;;;;;;;15.67;10.23;;;;;;;9.49;88.76;101093.06;1415382;92;21561;-78
2022/10/08 01:05:44;;;;;;;17.70;9.83;;;;;;;9.47;89.07;101085.73;1414527;92;22557;-77
2022/10/08 01:08:25;;;;;;;13.57;9.40;;;;;;;9.43;88.95;101081.64;1421115;91;21455;-77
2022/10/08 01:11:26;;;;;;;15.57;10.77;;;;;;;9.41;89.14;101086.72;1420883;91;22463;-77
2022/10/08 01:14:13;;;;;;;17.02;9.68;;;;;;;9.43;89.46;101090.89;1419723;92;22344;-78
2022/10/08 01:16:49;;;;;;;18.93;10.10;;;;;;;9.41;89.29;101088.88;1423598;92;21538;-78
2022/10/08 01:19:45;;;;;;;14.53;9.97;;;;;;;9.39;89.32;101081.55;1416504;91;21452;-77
2022/10/08 01:22:43;;;;;;;16.13;11.33;;;;;;;9.36;89.12;101081.80;1414955;90;21379;-77
2022/10/08 01:25:54;;;;;;;18.67;10.03;;;;;;;9.34;88.71;101081.55;1436661;90;21946;-77
2022/10/08 01:28:45;;;;;;;14.50;10.30;;;;;;;9.29;88.72;101084.55;1439455;90;21382;-78
2022/10/08 01:31:25;;;;;;;;;;;;;;;9.26;89.01;101076.42;1440449;89;21376;-77
2022/10/08 01:33:58;;;;;;;15.47;9.63;;;;;;;9.25;89.57;101073.89;1416618;92;20326;-77
2022/10/08 01:36:29;;;;;;;20.43;12.73;;;;;;;9.24;89.42;101078.83;1425881;92;21486;-77
2022/10/08 01:39:05;;;;;;;11.13;8.90;;;;;;;9.20;89.71;101079.53;1410677;92;21479;-78
2022/10/08 01:41:33;;;;;;;19.87;10.03;;;;;;;9.15;89.51;101078.22;1418279;92;21419;-78
2022/10/08 01:44:08;;;;;;;18.73;10.93;;;;;;;9.10;90.05;101072.48;1417487;92;21426;-78
2022/10/08 01:46:39;;;;;;;19.97;10.17;;;;;;;9.07;90.21;101072.25;1419084;92;23561;-78
2022/10/08 01:49:12;;;;;;;14.73;9.20;;;;;;;9.07;90.89;101067.45;1422860;92;21464;-78
2022/10/08 01:51:54;;;;;;;13.20;9.80;;;;;;;9.07;91.27;101064.81;1418777;92;21375;-78
2022/10/08 01:54:24;;;;;;;15.93;9.57;;;;;;;9.06;90.78;101067.07;1435685;90;22284;-77
2022/10/08 01:56:54;;;;;;;15.30;8.85;;;;;;;9.07;90.25;101063.48;1418311;90;21552;-77
2022/10/08 01:59:38;;;;;;;16.07;9.20;;;;;;;9.08;90.19;101062.03;1418222;91;21457;-77
2022/10/08 02:02:23;;;;;;;20.23;10.43;;;;;;;9.12;90.21;101063.94;1421651;90;21398;-77
2022/10/08 02:04:53;;;;;;;13.97;9.60;;;;;;;9.11;90.40;101058.31;1421711;91;21449;-77
2022/10/08 02:07:31;;;;;;;15.00;9.83;;;;;;;9.12;90.19;101058.66;1417296;90;21562;-77
2022/10/08 02:10:13;;;;;;;13.60;9.67;;;;;;;9.10;90.43;101054.84;1409451;90;21360;-77
2022/10/08 02:12:42;;;;;;;16.23;10.33;;;;;;;9.04;90.43;101060.13;1438998;90;22576;-77
2022/10/08 02:15:53;;;;;;;11.27;9.03;;;;;;;9.04;90.49;101058.80;1435108;91;22883;-77
2022/10/08 02:18:35;;;;;;;12.33;8.55;;;;;;;9.06;90.51;101060.47;1425718;90;22296;-76
2022/10/08 02:21:07;;;;;;;15.50;9.03;;;;;;;9.07;90.40;101063.48;1417431;92;21642;-77
2022/10/08 02:23:39;;;;;;;16.53;9.77;;;;;;;9.09;90.20;101063.73;1427806;91;21539;-77
2022/10/08 02:26:12;;;;;;;11.77;7.93;;;;;;;9.07;90.29;101063.48;1420391;90;21457;-77
2022/10/08 02:28:59;;;;;;;18.23;10.27;;;;;;;9.01;90.13;101064.33;1419844;91;21302;-76
2022/10/08 02:31:49;;;;;;;14.47;8.40;;;;;;;9.01;90.22;101056.41;1441446;89;21456;-77
2022/10/08 02:34:36;;;;;;;12.77;8.20;;;;;;;8.97;90.40;101052.31;1421136;91;22343;-77
2022/10/08 02:37:11;;;;;;;14.60;8.17;;;;;;;8.92;90.68;101052.32;1406309;91;21427;-77
2022/10/08 02:39:45;;;;;;;14.47;8.80;;;;;;;8.84;91.18;101051.63;1430561;91;21405;-77
2022/10/08 02:42:17;;;;;;;14.43;7.93;;;;;;;8.80;90.83;101050.17;1406901;92;22266;-77
2022/10/08 02:45:08;;;;;;;12.80;8.17;;;;;;;8.81;90.75;101047.91;1444640;91;22298;-76
2022/10/08 02:47:37;;;;;;;15.28;8.30;;;;;;;8.84;90.99;101047.67;1415696;91;22388;-77
2022/10/08 02:50:13;;;;;;;15.07;8.23;;;;;;;8.81;90.38;101050.55;1414393;91;21428;-77
2022/10/08 02:52:43;;;;;;;12.00;7.83;;;;;;;8.81;90.42;101052.70;1421975;90;21428;-78
2022/10/08 02:55:53;;;;;;;13.75;8.85;;;;;;;8.80;90.45;101047.53;1421005;91;21413;-78
2022/10/08 02:58:21;;;;;;;13.03;8.70;;;;;;;8.80;90.45;101044.89;1441499;90;22361;-78
2022/10/08 03:01:00;;;;;;;16.90;9.10;;;;;;;8.81;90.31;101051.88;1414432;91;23179;-77
2022/10/08 03:03:34;;;;;;;13.27;9.00;;;;;;;8.79;91.08;101048.50;1393958;93;21604;-78
2022/10/08 03:06:06;;;;;;;12.87;8.90;;;;;;;8.77;90.77;101045.14;1439933;90;21355;-78
2022/10/08 03:08:37;;;;;;;16.63;8.50;;;;;;;8.73;90.20;101048.99;1414534;90;21413;-78
2022/10/08 03:11:05;;;;;;;15.07;9.13;;;;;;;8.69;90.04;101043.58;1426122;91;21419;-78
2022/10/08 03:13:42;;;;;;;14.60;9.20;;;;;;;8.67;89.95;101046.84;1434795;90;22570;-78
2022/10/08 03:16:14;;;;;;;14.80;8.97;;;;;;;8.66;90.02;101047.77;1426681;91;21519;-78
2022/10/08 03:18:43;;;;;;;14.90;9.87;;;;;;;8.66;89.86;101046.45;1408120;92;21608;-77
2022/10/08 03:21:12;;;;;;;13.37;7.97;;;;;;;8.63;90.69;101043.61;1433960;91;21575;-77
2022/10/08 03:23:40;;;;;;;12.97;8.63;;;;;;;8.59;90.74;101053.53;1435227;91;22422;-78
2022/10/08 03:26:07;;;;;;;13.73;9.20;;;;;;;8.53;91.22;101048.74;1435244;91;21413;-78
2022/10/08 03:28:34;;;;;;;14.73;9.33;;;;;;;8.52;91.13;101048.88;1415751;92;21506;-78
2022/10/08 03:31:05;;;;;;;13.70;7.90;;;;;;;8.50;91.00;101038.43;1432103;91;21487;-77
2022/10/08 03:33:33;;;;;;;14.33;8.70;;;;;;;8.49;92.00;101038.56;1413661;91;21590;-77
2022/10/08 03:36:00;;;;;;;15.87;7.40;;;;;;;8.47;91.24;101051.86;1406930;92;21570;-77
2022/10/08 03:38:27;;;;;;;16.03;8.40;;;;;;;8.44;90.96;101044.67;1439932;91;21527;-78
2022/10/08 03:40:57;;;;;;;14.57;7.57;;;;;;;8.40;90.87;101044.08;1418855;92;21650;-78
2022/10/08 03:43:31;;;;;;;16.80;7.62;;;;;;;8.38;90.46;101044.63;1409853;91;21412;-78
2022/10/08 03:45:58;;;;;;;13.77;7.80;;;;;;;8.37;90.16;101042.93;1410328;91;22431;-78
2022/10/08 03:48:26;;;;;;;12.70;8.07;;;;;;;8.36;90.24;101041.27;1427551;89;22382;-77
2022/10/08 03:51:00;;;;;;;14.27;8.57;;;;;;;8.33;90.41;101044.14;1432564;90;22390;-77
2022/10/08 03:53:35;;;;;;;14.77;8.20;;;;;;;8.29;90.52;101050.13;1405947;92;21581;-77
2022/10/08 03:56:06;;;;;;;10.07;7.60;;;;;;;8.26;90.36;101042.95;1439519;90;21382;-77
2022/10/08 03:58:34;;;;;;;;;;;;;;;8.26;90.59;101045.58;1413930;92;21678;-78
2022/10/08 04:01:05;;;;;;;13.37;7.87;;;;;;;8.22;91.03;101042.80;1418804;91;20874;-77
2022/10/08 04:03:32;;;;;;;;;;;;;;;8.21;90.80;101038.50;1430517;91;21453;-78
2022/10/08 04:06:00;;;;;;;11.57;8.43;;;;;;;8.16;91.83;101039.31;1420311;90;20310;-77
2022/10/08 04:08:27;;;;;;;17.13;8.77;;;;;;;8.15;91.16;101033.21;1432679;90;21874;-78
2022/10/08 04:10:54;;;;;;;13.73;8.30;;;;;;;8.13;91.16;101037.27;1438969;90;21397;-78
2022/10/08 04:13:21;;;;;;;9.10;7.33;;;;;;;8.13;90.90;101041.22;1408588;91;21729;-77
2022/10/08 04:15:49;;;;;;;13.60;9.13;;;;;;;8.11;90.47;101037.88;1418410;91;21512;-77
2022/10/08 04:18:17;;;;;;;12.13;7.83;;;;;;;8.09;90.22;101039.79;1419661;92;21537;-76
2022/10/08 04:20:44;;;;;;;13.90;8.00;;;;;;;8.08;90.47;101035.94;1397922;92;21560;-77
2022/10/08 04:23:11;;;;;;;11.83;7.67;;;;;;;8.06;90.88;101036.06;1405692;92;22025;-77
2022/10/08 04:25:49;;;;;;;22.13;8.90;;;;;;;8.04;90.81;101041.92;1426507;91;21538;-77
2022/10/08 04:28:17;;;;;;;12.03;7.10;;;;;;;8.06;91.13;101041.34;1415804;92;21586;-77
2022/10/08 04:31:06;;;;;;;10.57;8.10;;;;;;;8.06;91.03;101038.70;1424095;91;21530;-77
2022/10/08 04:33:34;;;;;;;15.73;8.40;;;;;;;8.08;91.21;101039.89;1433148;91;21516;-77
2022/10/08 04:36:11;;;;;;;10.73;8.07;;;;;;;8.10;91.63;101043.27;1416487;91;21522;-77
2022/10/08 04:38:39;;;;;;;22.77;9.07;;;;;;;8.13;91.54;101043.86;1441028;91;21346;-77
2022/10/08 04:41:10;;;;;;;12.60;8.60;;;;;;;8.16;91.34;101047.23;1396770;92;21431;-76
2022/10/08 04:43:40;;;;;;;23.33;8.90;;;;;;;8.15;91.63;101050.34;1424617;92;21597;-77
2022/10/08 04:46:09;;;;;;;16.43;9.23;;;;;;;8.14;91.18;101046.87;1422835;91;21421;-77
2022/10/08 04:48:38;;;;;;;15.37;11.50;;;;;;;8.13;90.89;101054.41;1434455;90;21487;-76
2022/10/08 04:51:07;;;;;;;24.13;12.10;;;;;;;8.14;90.58;101049.52;1438836;90;21806;-77
2022/10/08 04:53:35;;;;;;;17.30;11.77;;;;;;;8.13;90.57;101046.98;1442823;90;21466;-77
2022/10/08 04:56:15;;;;;;;18.10;9.67;;;;;;;8.13;90.65;101050.45;1445105;90;22615;-77
2022/10/08 04:58:43;;;;;;;14.10;8.83;;;;;;;8.14;90.40;101049.52;1430452;91;22014;-77
2022/10/08 05:01:14;;;;;;;13.77;8.87;;;;;;;8.17;90.21;101048.89;1422538;91;21478;-76
2022/10/08 05:03:45;;;;;;;19.20;9.05;;;;;;;8.20;90.14;101052.61;1413079;92;21747;-76
2022/10/08 05:06:14;;;;;;;12.68;7.70;;;;;;;8.21;90.09;101054.31;1399511;93;22377;-77
2022/10/08 05:08:43;;;;;;;11.87;8.17;;;;;;;8.24;90.32;101052.77;1410651;92;21561;-77
2022/10/08 05:11:12;;;;;;;14.77;8.20;;;;;;;8.27;90.55;101051.20;1434084;91;21472;-77
2022/10/08 05:13:40;;;;;;;15.57;9.30;;;;;;;8.30;91.01;101047.02;1397987;92;21489;-78
2022/10/08 05:16:12;;;;;;;17.80;8.97;;;;;;;8.34;91.00;101046.67;1425031;91;21309;-78
2022/10/08 05:18:41;;;;;;;15.50;9.53;;;;;;;8.41;91.09;101045.74;1421239;91;21383;-78
2022/10/08 05:21:15;;;;;;;15.63;9.87;;;;;;;8.49;91.15;101042.04;1415433;92;21412;-78
2022/10/08 05:23:42;;;;;;;17.80;9.33;;;;;;;8.54;91.18;101046.45;1417102;91;21413;-78
2022/10/08 05:26:14;;;;;;;16.13;10.03;;;;;;;8.59;91.40;101042.98;1414303;91;21420;-77
2022/10/08 05:28:43;;;;;;;16.33;10.50;;;;;;;8.69;91.32;101048.85;1412690;92;22330;-77
2022/10/08 05:31:10;;;;;;;17.27;9.17;;;;;;;8.77;91.17;101047.30;1393365;92;22295;-77
2022/10/08 05:33:37;;;;;;;13.23;8.37;;;;;;;8.80;91.30;101051.49;1405803;92;22189;-76
2022/10/08 05:36:09;;;;;;;24.33;9.77;;;;;;;8.83;91.25;101055.20;1416154;91;21376;-77
2022/10/08 05:38:36;;;;;;;15.70;9.80;;;;;;;8.87;91.23;101052.70;1417824;91;21427;-77
2022/10/08 05:41:20;;;;;;;19.63;10.23;;;;;;;8.97;91.31;101057.59;1419480;91;21907;-76
2022/10/08 05:43:48;;;;;;;15.83;10.00;;;;;;;9.09;91.40;101054.94;1415164;91;21498;-78
2022/10/08 05:46:17;;;;;;;21.63;9.87;;;;;;;9.21;91.35;101053.98;1446667;91;21526;-77
2022/10/08 05:48:44;;;;;;;15.53;9.60;;;;;;;9.33;91.35;101054.30;1435820;91;22448;-78
2022/10/08 05:51:16;;;;;;;17.30;10.23;;;;;;;9.44;91.24;101058.23;1437881;91;21325;-76
2022/10/08 05:53:47;;;;;;;19.67;10.20;;;;;;;9.54;91.26;101057.00;1436517;91;21435;-76
2022/10/08 05:56:19;;;;;;;16.27;10.03;;;;;;;9.65;91.34;101056.12;1408708;91;21336;-77
2022/10/08 05:58:47;;;;;;;17.70;10.47;;;;;;;9.76;91.25;101057.89;1424101;92;22463;-82
2022/10/08 06:01:22;;;;;;;11.80;9.57;;;;;;;9.86;91.47;101065.40;1419831;91;21386;-82
2022/10/08 06:03:54;;;;;;;21.83;9.60;;;;;;;9.98;91.41;101059.08;1434854;90;21614;-82
2022/10/08 06:06:22;;;;;;;19.93;9.63;;;;;;;10.14;91.76;101059.97;1431989;91;21932;-81
2022/10/08 06:08:58;;;;;;;18.60;11.17;;;;;;;10.34;91.90;101061.79;1419959;90;21384;-80
2022/10/08 06:11:28;;;;;;;22.63;11.47;;;;;;;10.53;92.01;101064.17;1437342;92;21510;-83
2022/10/08 06:13:57;;;;;;;24.55;10.13;;;;;;;10.73;92.01;101063.78;1429148;91;21412;-82
2022/10/08 06:16:26;;;;;;;13.33;10.03;;;;;;;10.91;91.83;101062.69;1411260;92;22240;-83
2022/10/08 06:19:03;;;;;;;16.87;10.03;;;;;;;11.12;91.65;101067.41;1347909;92;21321;-82
2022/10/08 06:21:31;;;;;;;19.50;11.07;;;;;;;11.29;91.12;101062.77;1478803;90;21415;-84
2022/10/08 06:24:06;;;;;;;20.93;10.33;;;;;;;11.48;90.91;101061.15;1372041;91;21339;-84
2022/10/08 06:26:37;;;;;;;15.83;11.20;;;;;;;11.68;90.88;101060.18;1467213;92;21941;-84
2022/10/08 06:29:07;;;;;;;15.20;10.87;;;;;;;11.89;90.96;101061.88;1395800;92;21472;-83
2022/10/08 06:31:35;;;;;;;17.00;13.00;;;;;;;12.30;90.51;101056.70;1431593;90;21449;-84
2022/10/08 06:34:03;;;;;;;17.93;14.80;;;;;;;12.30;90.51;101056.70;1398859;93;22957;-84
2022/10/08 06:36:31;;;;;;;16.07;11.93;;;;;;;12.50;90.12;101053.51;1402661;92;22302;-83
2022/10/08 06:39:06;;;;;;;15.87;11.10;;;;;;;12.70;89.70;101054.77;1404375;92;21377;-85
2022/10/08 06:41:33;;;;;;;17.77;10.80;;;;;;;12.86;89.42;101052.34;1395685;92;21438;-83
2022/10/08 06:44:04;;;;;;;17.57;10.63;;;;;;;13.01;88.82;101053.50;1396231;92;21518;-84
2022/10/08 06:46:33;;;;;;;14.23;10.58;;;;;;;13.16;88.24;101052.51;1408493;91;22256;-84
2022/10/08 06:49:01;;;;;;;15.97;10.47;;;;;;;13.32;88.00;101051.86;1428828;92;22574;-84
2022/10/08 06:51:29;;;;;;;15.17;10.33;;;;;;;13.48;87.48;101048.05;1396968;92;21413;-85
2022/10/08 06:53:58;;;;;;;15.20;10.97;;;;;;;13.66;86.84;101053.36;1391738;92;21334;-85
2022/10/08 06:56:25;;;;;;;13.43;10.00;;;;;;;13.82;86.41;101056.67;1395101;92;21390;-84
2022/10/08 06:58:52;;;;;;;15.57;8.67;;;;;;;14.00;86.28;101058.81;1416524;90;21309;-84
2022/10/08 07:01:22;;;;;;;13.13;10.10;;;;;;;14.19;85.76;101060.95;1412707;90;21919;-84
2022/10/08 07:03:53;;;;;;;19.23;9.33;;;;;;;14.34;84.91;101056.73;1433565;91;22181;-84
2022/10/08 07:06:21;;;;;;;16.60;9.97;;;;;;;14.52;84.50;101053.20;1427347;91;22158;-83
2022/10/08 07:08:53;;;;;;;13.60;10.53;;;;;;;14.74;83.95;101053.98;1414016;91;21391;-84
2022/10/08 07:11:22;;;;;;;16.63;10.03;;;;;;;14.93;83.23;101056.88;1361817;92;21544;-84
2022/10/08 07:13:49;;;;;;;16.33;11.00;;;;;;;15.11;82.67;101056.80;1410759;91;21605;-84
2022/10/08 07:16:20;;;;;;;22.50;12.50;;;;;;;15.28;81.81;101054.52;1442627;90;22330;-84
2022/10/08 07:18:50;;;;;;;16.30;12.50;;;;;;;15.46;80.76;101055.71;1396635;89;21481;-84
2022/10/08 07:21:20;;;;;;;19.00;12.82;;;;;;;15.60;80.50;101055.56;1443183;90;21562;-84
2022/10/08 07:23:48;;;;;;;15.58;11.20;;;;;;;15.77;80.04;101054.61;1490516;85;21691;-84
2022/10/08 07:26:23;;;;;;;15.07;9.23;;;;;;;15.89;78.83;101055.62;1456851;89;22270;-83
2022/10/08 07:28:58;;;;;;;15.43;9.27;;;;;;;16.05;77.99;101056.09;1449170;89;22543;-83
2022/10/08 07:31:30;;;;;;;15.43;9.50;;;;;;;16.13;76.84;101055.59;1501634;86;21518;-83
2022/10/08 07:34:00;;;;;;;11.70;7.53;;;;;;;16.30;76.60;101052.39;1504302;86;21400;-84
2022/10/08 07:36:28;;;;;;;14.70;7.03;;;;;;;16.47;75.82;101052.69;1503070;86;21454;-84
2022/10/08 07:39:06;;;;;;;7.90;7.00;;;;;;;16.64;75.70;101051.32;1502766;86;21318;-83
2022/10/08 07:41:33;;;;;;;8.77;6.57;;;;;;;16.78;74.77;101043.13;1502192;86;21396;-84
2022/10/08 07:44:02;;;;;;;10.43;6.90;;;;;;;16.91;72.90;101047.39;1501538;86;21500;-84
2022/10/08 07:46:32;;;;;;;13.27;7.37;;;;;;;17.06;73.81;101044.81;1422389;86;21253;-83
2022/10/08 07:49:01;;;;;;;12.60;6.45;;;;;;;17.23;73.00;101045.56;1387592;88;21258;-84
2022/10/08 07:51:30;;;;;;;9.80;6.20;;;;;;;17.39;72.16;101048.66;1403257;88;21330;-83
2022/10/08 07:54:03;;;;;;;12.87;6.60;;;;;;;17.54;71.14;101046.36;1396127;88;21250;-84
2022/10/08 07:56:32;;;;;;;13.33;7.80;;;;;;;17.66;69.52;101040.59;1443315;88;21515;-84
2022/10/08 07:59:01;;;;;;;11.80;7.27;;;;;;;17.69;69.55;101041.57;1453764;88;21411;-85
2022/10/08 08:01:30;;;;;;;17.80;8.57;;;;;;;17.80;70.13;101042.52;1501478;86;21756;-88
2022/10/08 08:04:04;;;;;;;9.73;8.10;;;;;;;17.92;69.39;101034.89;1503792;86;21323;-87
2022/10/08 08:06:35;;;;;;;9.07;6.67;;;;;;;17.96;67.98;101037.03;1500278;86;21388;-88
2022/10/08 08:09:02;;;;;;;14.73;8.20;;;;;;;18.04;67.22;101030.27;1496211;86;21356;-89
2022/10/08 08:11:29;;;;;;;15.50;9.83;;;;;;;18.16;68.17;101037.87;1504145;86;21352;-89
2022/10/08 08:13:57;;;;;;;13.05;6.50;;;;;;;18.26;67.55;101030.37;1508030;86;21298;-89
2022/10/08 08:16:28;;;;;;;19.67;7.50;;;;;;;18.35;67.20;101035.14;1508041;86;21301;-90
2022/10/08 08:18:58;;;;;;;15.63;6.95;;;;;;;18.47;66.88;101029.16;1499728;86;21319;-91
2022/10/08 08:21:33;;;;;;;12.95;6.55;;;;;;;18.64;66.40;101025.78;1490252;86;22273;-89
2022/10/08 08:24:08;;;;;;;12.50;7.40;;;;;;;18.83;65.84;101020.89;1500495;86;22545;-90
2022/10/08 08:26:37;;;;;;;13.25;8.13;;;;;;;19.01;65.18;101024.50;1503573;86;21364;-90
2022/10/08 08:29:12;;;;;;;12.30;7.70;;;;;;;19.14;64.57;101026.00;1511992;86;21304;-88
2022/10/08 08:31:43;;;;;;;8.10;6.40;;;;;;;19.24;63.65;101026.52;1508670;86;21364;-89
2022/10/08 08:34:14;;;;;;;13.65;5.22;;;;;;;19.32;63.17;101026.39;1485550;86;21404;-90
2022/10/08 08:36:45;;;;;;;8.78;6.53;;;;;;;19.47;62.84;101021.48;1503388;85;21499;-90
2022/10/08 08:39:19;;;;;;;13.75;5.65;;;;;;;19.45;61.85;101024.38;1505474;86;21519;-89
2022/10/08 08:42:26;;;;;;;13.90;4.92;;;;;;;19.48;60.51;101025.34;1500910;86;21318;-89
2022/10/08 08:45:01;;;;;;;10.25;5.72;;;;;;;19.61;60.68;101021.41;1507339;86;21348;-88
2022/10/08 08:47:38;;;;;;;8.55;5.55;;;;;;;19.44;57.87;101012.48;1493324;86;22436;-89
2022/10/08 08:50:13;;;;;;;13.28;5.00;;;;;;;19.58;60.65;101015.61;1506762;86;21293;-90
2022/10/08 08:52:42;;;;;;;11.53;5.33;;;;;;;19.73;60.88;101014.22;1501304;86;21359;-87
2022/10/08 08:55:17;;;;;;;12.80;4.87;;;;;;;19.89;61.05;101010.44;1502725;86;21503;-86
2022/10/08 08:57:58;;;;;;;10.70;5.62;;;;;;;20.07;60.30;101008.08;1498578;86;21368;-89
2022/10/08 09:00:37;;;;;;;10.68;5.00;;;;;;;20.14;59.83;101002.74;1506747;86;21455;-88
2022/10/08 09:03:21;;;;;;;9.28;5.78;;;;;;;20.32;59.60;101002.27;1482151;88;21603;-89
2022/10/08 09:05:56;;;;;;;10.50;5.70;;;;;;;20.53;59.79;101006.23;1497382;86;21403;-88
2022/10/08 09:08:49;;;;;;;14.58;4.20;;;;;;;20.75;58.84;101002.10;1514593;86;21518;-89
2022/10/08 09:11:21;;;;;;;8.50;4.60;;;;;;;20.98;57.73;100999.91;1506086;86;22415;-87
2022/10/08 09:14:31;;;;;;;7.70;3.62;;;;;;;21.45;55.15;100994.66;1484859;86;21464;-88
2022/10/08 09:17:03;;;;;;;12.23;3.40;;;;;;;21.90;54.64;100998.40;1502913;86;21792;-89
2022/10/08 09:19:30;;;;;;;8.25;3.85;;;;;;;22.47;52.31;100996.87;1503321;86;21521;-90
2022/10/08 09:21:57;;;;;;;3.83;2.87;;;;;;;22.89;51.02;100994.62;1498049;86;21271;-91
2022/10/08 09:24:25;;;;;;;8.00;3.17;;;;;;;22.90;44.44;100992.73;1506001;86;21330;-89
2022/10/08 09:26:52;;;;;;;10.20;3.47;;;;;;;23.48;48.54;100999.89;1504865;86;21374;-90
2022/10/08 09:29:33;;;;;;;8.70;3.40;;;;;;;23.94;48.01;100992.81;1501815;86;21396;-89
2022/10/08 09:32:00;;;;;;;4.65;2.20;;;;;;;24.36;47.28;100985.41;1506118;86;21426;-89
2022/10/08 09:34:27;;;;;;;4.15;2.80;;;;;;;24.76;47.06;100992.02;1500125;86;21444;-90
2022/10/08 09:37:07;;;;;;;5.92;3.08;;;;;;;25.14;46.02;100982.78;1502754;86;21298;-89
2022/10/08 09:39:36;;;;;;;;;;;;;;;25.52;45.44;100979.41;1504684;86;21804;-90
2022/10/08 09:42:12;;;;;;;12.82;4.37;;;;;;;25.39;42.67;100980.45;1507305;86;20295;-88
2022/10/08 09:44:50;;;;;;;5.53;3.25;;;;;;;25.47;43.28;100976.05;1492836;86;21519;-89
2022/10/08 09:47:21;;;;;;;5.20;2.87;;;;;;;25.28;43.28;100974.47;1501353;86;21483;-90
2022/10/08 09:50:06;;;;;;;10.00;2.98;;;;;;;25.45;43.94;100975.45;1505017;86;21445;-89
2022/10/08 09:52:35;;;;;;;8.83;3.00;;;;;;;25.47;43.70;100967.92;1502339;86;22528;-89
2022/10/08 09:55:22;;;;;;;7.37;2.87;;;;;;;25.59;42.89;100970.12;1505646;86;22398;-90
2022/10/08 09:57:55;;;;;;;4.65;2.60;;;;;;;25.79;43.22;100963.53;1506008;86;21963;-90
2022/10/08 10:00:28;;;;;;;8.15;2.75;;;;;;;25.89;42.43;100962.44;1501356;85;21408;-90
2022/10/08 10:02:58;;;;;;;5.05;2.77;;;;;;;26.00;41.87;100958.08;1509838;86;22085;-90
2022/10/08 10:05:29;;;;;;;5.47;3.17;;;;;;;25.97;41.32;100951.23;1503101;86;21363;-89
2022/10/08 10:07:57;;;;;;;6.22;3.00;;;;;;;26.03;40.66;100948.92;1497438;86;21347;-89
2022/10/08 10:10:43;;;;;;;7.12;2.72;;;;;;;26.05;40.33;100944.09;1504071;86;21285;-87
2022/10/08 10:13:20;;;;;;;7.10;3.30;;;;;;;26.11;40.54;100945.86;1508155;86;21312;-89
2022/10/08 10:16:16;;;;;;;12.03;3.12;;;;;;;26.16;40.21;100938.91;1500402;86;21356;-89
2022/10/08 10:19:02;;;;;;;6.10;2.83;;;;;;;26.17;40.08;100937.83;1508027;86;22050;-89
2022/10/08 10:21:47;;;;;;;7.78;3.22;;;;;;;26.09;39.57;100928.98;1496016;86;21308;-89
2022/10/08 10:24:32;;;;;;;7.33;3.22;;;;;;;25.86;39.47;100934.44;1499325;86;22560;-89
2022/10/08 10:27:07;;;;;;;5.55;2.70;;;;;;;25.68;39.37;100928.58;1491511;87;22379;-90
2022/10/08 10:29:52;;;;;;;9.53;2.52;;;;;;;25.81;40.38;100922.94;1487068;87;21528;-90
2022/10/08 10:32:25;;;;;;;3.62;2.67;;;;;;;25.73;39.70;100922.47;1453839;89;21413;-90
2022/10/08 10:35:18;;;;;;;9.13;3.33;;;;;;;25.92;40.57;100917.22;1478648;87;21449;-91
2022/10/08 10:37:51;;;;;;;4.90;2.83;;;;;;;25.98;40.00;100913.58;1485105;87;21331;-89
2022/10/08 10:40:29;;;;;;;5.87;2.40;;;;;;;25.80;39.66;100908.25;1485564;87;21561;-89
2022/10/08 10:43:36;;;;;;;6.90;3.15;;;;;;;25.91;40.21;100910.69;1504395;87;21261;-88
2022/10/08 10:46:15;;;;;;;8.35;3.42;;;;;;;25.79;39.43;100907.96;1424151;91;22236;-89
2022/10/08 10:48:42;;;;;;;6.60;2.42;;;;;;;25.32;40.30;100899.80;1411271;92;22426;-90
2022/10/08 10:51:30;;;;;;;17.25;2.98;;;;;;;25.16;40.22;100898.61;1455742;87;21378;-90
2022/10/08 10:54:18;;;;;;;14.05;2.62;;;;;;;25.20;40.84;100891.16;1489758;87;21514;-90
2022/10/08 10:57:02;;;;;;;12.43;3.00;;;;;;;25.31;40.21;100888.67;1487737;87;21426;-90
2022/10/08 10:59:46;;;;;;;8.93;2.62;;;;;;;25.40;39.83;100881.84;1479474;88;21419;-90
2022/10/08 11:02:28;;;;;;;5.55;2.83;;;;;;;25.52;39.62;100878.63;1434676;89;21664;-87
2022/10/08 11:05:19;;;;;;;6.25;2.90;;;;;;;25.69;39.72;100879.25;1450827;89;21405;-88
2022/10/08 11:08:30;;;;;;;7.55;2.55;;;;;;;25.61;39.09;100869.62;1484955;87;23211;-89
2022/10/08 11:11:24;;;;;;;12.40;2.90;;;;;;;25.63;39.35;100869.64;1483784;87;21391;-88
2022/10/08 11:14:26;;;;;;;12.03;4.05;;;;;;;25.33;39.47;100863.01;1484934;87;21315;-90
2022/10/08 11:17:20;;;;;;;4.92;3.02;;;;;;;24.91;39.29;100855.43;1483760;87;21397;-90
2022/10/08 11:20:05;;;;;;;5.42;3.45;;;;;;;25.04;40.07;100859.30;1466330;88;21309;-89
2022/10/08 11:22:55;;;;;;;4.67;2.60;;;;;;;25.27;40.13;100852.30;1478979;88;21428;-87
2022/10/08 11:25:41;;;;;;;9.23;2.72;;;;;;;25.57;40.12;100852.98;1467691;87;21372;-89
2022/10/08 11:29:06;;;;;;;10.15;2.83;;;;;;;25.74;39.44;100841.42;1440950;89;22018;-89
2022/10/08 11:31:49;;;;;;;9.53;3.25;;;;;;;25.84;38.81;100836.27;1464445;89;21478;-88
2022/10/08 11:34:36;;;;;;;11.30;3.30;;;;;;;25.71;38.21;100836.48;1459555;89;21317;-89
2022/10/08 11:37:27;;;;;;;10.68;3.00;;;;;;;25.74;38.55;100831.94;1450918;89;21452;-89
2022/10/08 11:40:34;;;;;;;7.12;3.83;;;;;;;25.61;37.88;100835.20;1403864;92;21393;-89
2022/10/08 11:43:25;;;;;;;7.20;3.77;;;;;;;25.58;38.67;100828.91;1357758;93;22598;-89
2022/10/08 11:46:21;;;;;;;15.85;3.77;;;;;;;25.54;38.74;100825.00;1382781;93;21562;-89
2022/10/08 11:48:49;;;;;;;34.88;4.75;;;;;;;25.72;38.97;100820.50;1413184;92;21338;-89
2022/10/08 11:51:25;;;;;;;5.50;3.30;;;;;;;25.99;38.31;100818.95;1412990;92;21426;-89
2022/10/08 11:54:24;;;;;;;5.53;3.25;;;;;;;26.00;37.72;100814.34;1391133;92;22292;-88
2022/10/08 11:57:14;;;;;;;14.80;3.67;;;;;;;25.99;37.85;100811.35;1395417;93;22324;-89
2022/10/08 11:59:49;;;;;;;8.18;3.98;;;;;;;26.04;37.45;100809.57;1409102;92;21620;-86